Time;durP1;ratioP1;P1;durP2;ratioP2;P2;SDS_P1;SDS_P2;PMS_P1;PMS_P2;Temp;Humidity;BMP_temperature;BMP_pressure;BME280_temperature;BME280_humidity;BME280_pressure;Samples;Min_cycle;Max_cycle;Signal;HPM_P1;HPM_P2
2022/06/05 00:01:53;;;;;;;0.33;0.33;;;18.30;99.90;;;;;;5074556;28;20197;-80
2022/06/05 00:04:30;;;;;;;0.37;0.37;;;18.40;99.90;;;;;;5074893;28;20174;-79
2022/06/05 00:07:10;;;;;;;0.30;0.30;;;18.60;99.90;;;;;;5074224;28;20636;-78
2022/06/05 00:09:48;;;;;;;0.30;0.30;;;18.60;99.90;;;;;;5073519;28;20262;-79
2022/06/05 00:12:18;;;;;;;0.30;0.30;;;18.60;99.90;;;;;;5074211;28;20205;-79
2022/06/05 00:14:44;;;;;;;0.30;0.30;;;18.50;99.90;;;;;;5073073;28;20592;-79
2022/06/05 00:17:13;;;;;;;0.30;0.30;;;18.50;99.90;;;;;;5073534;28;20214;-79
2022/06/05 00:19:42;;;;;;;0.27;0.27;;;18.50;99.90;;;;;;5072867;28;20198;-79
2022/06/05 00:22:08;;;;;;;0.40;0.40;;;18.50;99.90;;;;;;5077297;28;20201;-79
2022/06/05 00:24:34;;;;;;;0.30;0.30;;;18.40;99.90;;;;;;5077049;28;20178;-80
2022/06/05 00:27:29;;;;;;;0.40;0.40;;;18.40;99.90;;;;;;5077249;28;20240;-79
2022/06/05 00:30:12;;;;;;;0.40;0.40;;;18.30;99.90;;;;;;5076718;28;20198;-79
2022/06/05 00:32:53;;;;;;;0.40;0.40;;;18.30;99.90;;;;;;5077548;28;20224;-78
2022/06/05 00:35:21;;;;;;;0.30;0.30;;;18.30;99.90;;;;;;5077102;28;20190;-79
2022/06/05 00:38:17;;;;;;;0.30;0.30;;;18.30;99.90;;;;;;5076905;28;20183;-78
2022/06/05 00:41:07;;;;;;;0.30;0.30;;;18.30;99.90;;;;;;5075717;28;20185;-80
2022/06/05 00:43:33;;;;;;;0.40;0.40;;;18.40;99.90;;;;;;5076229;28;20258;-80
2022/06/05 00:45:58;;;;;;;0.30;0.30;;;18.40;99.90;;;;;;5075917;28;20201;-77
2022/06/05 00:48:25;;;;;;;0.30;0.30;;;18.50;99.90;;;;;;5076284;28;20280;-80
2022/06/05 00:50:50;;;;;;;0.30;0.30;;;18.60;99.90;;;;;;5057351;28;20240;-77
2022/06/05 00:53:16;;;;;;;0.30;0.30;;;18.70;99.90;;;;;;5075876;28;20175;-81
2022/06/05 00:55:46;;;;;;;0.40;0.40;;;18.80;99.90;;;;;;5075500;28;20551;-78
2022/06/05 00:58:12;;;;;;;0.30;0.30;;;18.80;91.00;;;;;;5076453;28;20181;-77
2022/06/05 01:00:42;;;;;;;0.40;0.40;;;18.80;98.70;;;;;;5075452;28;20174;-84
2022/06/05 01:03:10;;;;;;;0.40;0.40;;;18.90;74.00;;;;;;5075487;28;20194;-80
2022/06/05 01:05:37;;;;;;;0.30;0.30;;;18.90;55.60;;;;;;5075243;28;20174;-80
2022/06/05 01:08:04;;;;;;;0.30;0.30;;;18.90;65.40;;;;;;5074970;28;20177;-78
2022/06/05 01:10:58;;;;;;;0.30;0.30;;;18.90;61.80;;;;;;5074371;28;20273;-78
2022/06/05 01:13:52;;;;;;;0.30;0.30;;;19.00;46.60;;;;;;5074835;28;20182;-77
2022/06/05 01:16:29;;;;;;;0.40;0.40;;;19.00;27.00;;;;;;5075315;28;20293;-79
2022/06/05 01:19:15;;;;;;;0.40;0.40;;;19.10;19.00;;;;;;5074703;28;20174;-81
2022/06/05 01:21:43;;;;;;;0.30;0.30;;;19.10;23.80;;;;;;5074875;28;20182;-80
2022/06/05 01:24:11;;;;;;;0.33;0.33;;;19.00;33.00;;;;;;5075007;28;20537;-80
2022/06/05 01:26:46;;;;;;;0.40;0.40;;;19.00;39.20;;;;;;5075069;28;20257;-79
2022/06/05 01:29:34;;;;;;;0.40;0.40;;;19.00;49.20;;;;;;5074496;28;20228;-77
2022/06/05 01:32:08;;;;;;;0.30;0.30;;;19.00;59.70;;;;;;5073512;28;20686;-79
2022/06/05 01:34:43;;;;;;;0.30;0.30;;;19.00;42.20;;;;;;5075256;28;20166;-79
2022/06/05 01:37:12;;;;;;;0.33;0.33;;;19.10;33.50;;;;;;5074908;28;20690;-78
2022/06/05 01:40:04;;;;;;;0.40;0.40;;;19.10;16.00;;;;;;5074250;28;20587;-79
2022/06/05 01:42:41;;;;;;;0.40;0.40;;;19.10;8.90;;;;;;5074590;28;20230;-77
2022/06/05 01:45:22;;;;;;;0.40;0.40;;;19.10;17.50;;;;;;5074891;28;20182;-80
2022/06/05 01:47:52;;;;;;;0.37;0.37;;;19.20;1.00;;;;;;5074976;28;20181;-78
2022/06/05 01:50:31;;;;;;;0.37;0.37;;;19.20;1.00;;;;;;5074260;28;20189;-79
2022/06/05 01:53:18;;;;;;;0.30;0.30;;;19.20;1.00;;;;;;5074667;28;20201;-80
2022/06/05 01:56:00;;;;;;;0.40;0.40;;;19.10;1.00;;;;;;5057693;28;20238;-79
2022/06/05 01:58:40;;;;;;;0.30;0.30;;;19.20;1.00;;;;;;5074722;28;20555;-81
2022/06/05 02:01:13;;;;;;;0.30;0.30;;;19.10;1.00;;;;;;5074446;28;20701;-80
2022/06/05 02:03:44;;;;;;;0.40;0.40;;;19.00;46.90;;;;;;5074478;28;20185;-77
2022/06/05 02:06:14;;;;;;;0.30;0.30;;;18.90;81.90;;;;;;5074604;28;20182;-79
2022/06/05 02:09:13;;;;;;;0.40;0.40;;;18.90;95.80;;;;;;5074351;28;20224;-81
2022/06/05 02:11:39;;;;;;;0.30;0.30;;;18.80;97.70;;;;;;5074623;28;20198;-80
2022/06/05 02:14:07;;;;;;;0.40;0.40;;;18.70;99.90;;;;;;5073988;28;20180;-78
2022/06/05 02:16:36;;;;;;;0.37;0.37;;;18.60;99.90;;;;;;5074695;28;20596;-81
2022/06/05 02:19:05;;;;;;;0.30;0.30;;;18.50;99.90;;;;;;5074611;28;20248;-80
2022/06/05 02:21:33;;;;;;;0.40;0.40;;;18.40;99.90;;;;;;5075209;28;20205;-82
2022/06/05 02:23:59;;;;;;;0.30;0.30;;;18.40;99.90;;;;;;5075083;28;20202;-78
2022/06/05 02:26:27;;;;;;;0.30;0.30;;;18.40;99.90;;;;;;5074922;28;20515;-79
2022/06/05 02:28:52;;;;;;;0.30;0.30;;;18.40;99.90;;;;;;5074960;28;20225;-80
2022/06/05 02:31:35;;;;;;;0.30;0.30;;;18.50;99.90;;;;;;5075118;28;20214;-81
2022/06/05 02:34:33;;;;;;;0.33;0.33;;;18.50;99.90;;;;;;5075042;28;20175;-80
2022/06/05 02:37:32;;;;;;;0.40;0.40;;;18.50;99.90;;;;;;5075725;28;20301;-80
2022/06/05 02:40:10;;;;;;;0.30;0.30;;;18.50;99.90;;;;;;5040422;28;20185;-80
2022/06/05 02:42:44;;;;;;;0.30;0.30;;;18.40;99.90;;;;;;5078779;28;20209;-80
2022/06/05 02:45:25;;;;;;;0.37;0.37;;;18.40;99.90;;;;;;5073836;28;20178;-80
2022/06/05 02:48:28;;;;;;;0.40;0.40;;;18.40;99.90;;;;;;5073375;28;20186;-80
2022/06/05 02:51:18;;;;;;;0.30;0.30;;;18.30;99.90;;;;;;5068526;28;20177;-80
2022/06/05 02:53:51;;;;;;;0.30;0.30;;;18.30;99.90;;;;;;5090838;28;20187;-80
2022/06/05 02:56:18;;;;;;;0.30;0.30;;;18.30;99.90;;;;;;5093941;28;20201;-80
2022/06/05 02:58:45;;;;;;;0.30;0.30;;;18.30;99.90;;;;;;5093570;28;20178;-80
2022/06/05 03:04:00;;;;;;;0.30;0.30;;;18.20;99.90;;;;;;5057107;28;20280;-79
2022/06/05 03:06:29;;;;;;;0.40;0.40;;;18.20;99.90;;;;;;5105853;28;20630;-78
2022/06/05 03:08:55;;;;;;;0.30;0.30;;;18.30;99.90;;;;;;5109434;28;20268;-77
2022/06/05 03:11:21;;;;;;;0.30;0.30;;;18.30;99.90;;;;;;5108845;28;20205;-78
2022/06/05 03:13:47;;;;;;;0.40;0.40;;;18.30;99.90;;;;;;5108877;28;20244;-78
2022/06/05 03:16:12;;;;;;;0.30;0.30;;;18.30;99.90;;;;;;5105619;28;20296;-77
2022/06/05 03:18:38;;;;;;;0.30;0.30;;;18.30;99.90;;;;;;5095430;28;20696;-78
2022/06/05 03:21:04;;;;;;;0.30;0.30;;;18.40;99.90;;;;;;5094375;28;20193;-78
2022/06/05 03:23:31;;;;;;;0.40;0.40;;;18.40;98.70;;;;;;5094479;28;20252;-78
2022/06/05 03:25:57;;;;;;;0.40;0.40;;;18.60;82.60;;;;;;5094525;28;20213;-77
2022/06/05 03:28:23;;;;;;;0.30;0.30;;;18.50;91.20;;;;;;5093574;28;20535;-78
2022/06/05 03:30:48;;;;;;;0.30;0.30;;;18.50;78.70;;;;;;5093344;28;20193;-78
2022/06/05 03:33:14;;;;;;;0.30;0.30;;;18.40;74.90;;;;;;5094598;28;20268;-79
2022/06/05 03:35:42;;;;;;;0.30;0.30;;;18.40;64.80;;;;;;5094363;28;20584;-78
2022/06/05 03:38:09;;;;;;;0.30;0.30;;;18.50;40.40;;;;;;5094526;28;20182;-78
2022/06/05 03:40:38;;;;;;;0.30;0.30;;;18.60;10.60;;;;;;5106221;23;20222;-79
2022/06/05 03:43:04;;;;;;;0.40;0.40;;;18.60;9.80;;;;;;5115503;28;20193;-80
2022/06/05 03:45:29;;;;;;;0.30;0.30;;;18.60;29.60;;;;;;5112730;28;20173;-79
2022/06/05 03:47:55;;;;;;;0.40;0.40;;;18.50;25.40;;;;;;5114688;28;20180;-79
2022/06/05 03:50:21;;;;;;;0.40;0.40;;;18.60;11.70;;;;;;5122225;28;20173;-79
2022/06/05 03:52:46;;;;;;;0.40;0.40;;;18.60;1.00;;;;;;5123168;28;20203;-79
2022/06/05 03:55:16;;;;;;;0.30;0.30;;;18.60;1.00;;;;;;5120307;28;20321;-77
2022/06/05 03:57:41;;;;;;;0.40;0.40;;;18.60;1.00;;;;;;5115674;28;20308;-77
2022/06/05 04:00:09;;;;;;;0.30;0.30;;;18.50;12.20;;;;;;5114162;28;20200;-77
2022/06/05 04:02:35;;;;;;;0.40;0.40;;;18.50;60.50;;;;;;5115355;28;20205;-77
2022/06/05 04:05:02;;;;;;;0.30;0.30;;;18.50;87.80;;;;;;5115129;28;20545;-77
2022/06/05 04:07:28;;;;;;;0.30;0.30;;;18.50;96.60;;;;;;5113064;28;20185;-77
2022/06/05 04:09:54;;;;;;;0.37;0.37;;;18.40;99.90;;;;;;5112042;28;20539;-77
2022/06/05 04:12:19;;;;;;;0.30;0.30;;;18.40;99.90;;;;;;5112433;28;20280;-77
2022/06/05 04:14:45;;;;;;;0.30;0.30;;;18.30;99.90;;;;;;5112476;28;20180;-77
2022/06/05 04:17:11;;;;;;;0.40;0.40;;;18.30;99.90;;;;;;5112844;28;20232;-77
2022/06/05 04:19:37;;;;;;;0.30;0.30;;;18.20;99.90;;;;;;5112395;28;20286;-77
2022/06/05 04:22:02;;;;;;;0.40;0.40;;;18.20;99.90;;;;;;5113526;28;20235;-78
2022/06/05 04:24:28;;;;;;;0.30;0.30;;;18.30;99.90;;;;;;5114172;28;20180;-77
2022/06/05 04:26:54;;;;;;;0.40;0.40;;;18.30;99.90;;;;;;5114372;28;20648;-77
2022/06/05 04:29:19;;;;;;;0.40;0.40;;;18.40;99.90;;;;;;5114287;28;20621;-77
2022/06/05 04:31:46;;;;;;;0.30;0.30;;;18.30;99.90;;;;;;5113936;28;20280;-77
2022/06/05 04:34:15;;;;;;;0.30;0.30;;;18.30;99.90;;;;;;5113808;28;20544;-77
2022/06/05 04:36:41;;;;;;;0.30;0.30;;;18.20;99.90;;;;;;5112545;28;20677;-77
2022/06/05 04:39:07;;;;;;;0.30;0.30;;;18.10;99.90;;;;;;5112403;28;20183;-76
2022/06/05 04:41:33;;;;;;;0.40;0.40;;;18.10;99.90;;;;;;5112931;28;20242;-77
2022/06/05 04:43:58;;;;;;;0.30;0.30;;;18.10;99.90;;;;;;5113503;28;20178;-77
2022/06/05 04:46:27;;;;;;;0.47;0.47;;;18.10;99.90;;;;;;5113283;28;20590;-77
2022/06/05 04:48:52;;;;;;;0.40;0.40;;;18.10;99.90;;;;;;5112964;28;20181;-77
2022/06/05 04:51:19;;;;;;;0.30;0.30;;;18.10;99.90;;;;;;5112091;28;20193;-77
2022/06/05 04:53:46;;;;;;;0.40;0.40;;;18.00;99.90;;;;;;5111841;28;20173;-77
2022/06/05 04:56:15;;;;;;;0.30;0.30;;;17.90;99.90;;;;;;5111768;28;20581;-77
2022/06/05 04:58:41;;;;;;;0.40;0.40;;;17.80;99.90;;;;;;5112028;28;20262;-77
2022/06/05 05:01:19;;;;;;;0.40;0.40;;;17.80;99.90;;;;;;5111555;28;20282;-76
2022/06/05 05:03:46;;;;;;;0.40;0.40;;;17.60;99.90;;;;;;5111562;28;20173;-77
2022/06/05 05:06:12;;;;;;;0.40;0.40;;;17.60;99.90;;;;;;5112700;28;20685;-77
2022/06/05 05:08:38;;;;;;;0.30;0.30;;;17.60;99.90;;;;;;5115315;28;20268;-77
2022/06/05 05:11:04;;;;;;;0.40;0.40;;;17.60;99.90;;;;;;5114550;27;20288;-76
2022/06/05 05:13:30;;;;;;;0.30;0.30;;;17.60;99.90;;;;;;5115226;28;20185;-77
2022/06/05 05:15:56;;;;;;;0.30;0.30;;;17.50;99.90;;;;;;5107839;28;20297;-77
2022/06/05 05:18:23;;;;;;;0.30;0.30;;;17.50;99.90;;;;;;5074478;28;20178;-77
2022/06/05 05:20:49;;;;;;;0.30;0.30;;;17.50;99.90;;;;;;5073947;28;20277;-77
2022/06/05 05:23:14;;;;;;;0.30;0.30;;;17.60;99.90;;;;;;5074451;28;20198;-77
2022/06/05 05:25:40;;;;;;;0.40;0.40;;;17.60;99.90;;;;;;5074243;28;20639;-76
2022/06/05 05:28:06;;;;;;;0.37;0.37;;;17.60;99.90;;;;;;5074526;28;20219;-77
2022/06/05 05:30:37;;;;;;;0.33;0.33;;;17.70;99.90;;;;;;5074019;28;20261;-77
2022/06/05 05:33:03;;;;;;;0.40;0.40;;;17.70;99.90;;;;;;5074190;28;20195;-77
2022/06/05 05:35:29;;;;;;;0.30;0.30;;;17.70;99.90;;;;;;5074399;28;20254;-77
2022/06/05 05:37:55;;;;;;;0.30;0.30;;;17.70;99.90;;;;;;5077352;28;20279;-79
2022/06/05 05:43:05;;;;;;;0.40;0.40;;;17.60;99.90;;;;;;5080323;28;20223;-79
2022/06/05 05:45:30;;;;;;;0.40;0.40;;;17.60;99.90;;;;;;5088513;28;20194;-77
2022/06/05 05:47:56;;;;;;;0.30;0.30;;;17.50;99.90;;;;;;5087317;28;20606;-78
2022/06/05 05:50:21;;;;;;;0.43;0.43;;;17.40;99.90;;;;;;5085788;28;20182;-77
2022/06/05 05:52:47;;;;;;;0.40;0.40;;;17.40;99.90;;;;;;5085313;28;20201;-77
2022/06/05 05:55:15;;;;;;;0.40;0.40;;;17.40;99.90;;;;;;5080791;28;20262;-76
2022/06/05 05:57:41;;;;;;;0.40;0.40;;;17.40;99.90;;;;;;5079126;28;20301;-77
2022/06/05 06:00:10;;;;;;;0.30;0.30;;;17.40;99.90;;;;;;5077658;28;20202;-78
2022/06/05 06:02:36;;;;;;;0.43;0.43;;;17.30;99.90;;;;;;5079867;28;20208;-78
2022/06/05 06:05:03;;;;;;;0.40;0.40;;;17.30;99.90;;;;;;5083742;28;20174;-77
2022/06/05 06:07:29;;;;;;;0.30;0.30;;;17.30;99.90;;;;;;5084341;28;20174;-78
2022/06/05 06:09:55;;;;;;;0.30;0.30;;;17.30;99.90;;;;;;5086219;28;20581;-78
2022/06/05 06:12:20;;;;;;;0.40;0.40;;;17.20;99.90;;;;;;5087836;28;20202;-78
2022/06/05 06:14:46;;;;;;;0.40;0.40;;;17.20;99.90;;;;;;5088412;28;20209;-77
2022/06/05 06:17:12;;;;;;;0.30;0.30;;;17.10;99.90;;;;;;5086925;28;20273;-78
2022/06/05 06:19:38;;;;;;;0.30;0.30;;;17.20;99.90;;;;;;5082379;28;20230;-78
2022/06/05 06:22:04;;;;;;;0.40;0.40;;;17.10;99.90;;;;;;5080982;28;20198;-77
2022/06/05 06:24:30;;;;;;;0.30;0.30;;;17.00;99.90;;;;;;5076575;28;20174;-77
2022/06/05 06:26:56;;;;;;;0.40;0.40;;;16.90;99.90;;;;;;5077534;28;20185;-77
2022/06/05 06:29:21;;;;;;;0.30;0.30;;;16.90;99.90;;;;;;5080175;28;20179;-77
2022/06/05 06:31:47;;;;;;;0.30;0.30;;;16.90;99.90;;;;;;5102348;28;20276;-78
2022/06/05 06:34:13;;;;;;;0.40;0.40;;;16.80;99.90;;;;;;5112156;28;20181;-78
2022/06/05 06:36:39;;;;;;;0.40;0.40;;;16.80;99.90;;;;;;5114581;28;20238;-79
2022/06/05 06:39:05;;;;;;;0.40;0.40;;;16.80;99.90;;;;;;5123629;28;20370;-79
2022/06/05 06:41:30;;;;;;;0.30;0.30;;;16.80;99.90;;;;;;5120641;28;20221;-78
2022/06/05 06:43:56;;;;;;;0.40;0.40;;;16.80;99.90;;;;;;5122600;28;20554;-78
2022/06/05 06:46:22;;;;;;;0.30;0.30;;;16.70;99.90;;;;;;5117788;28;20184;-79
2022/06/05 06:48:47;;;;;;;0.40;0.40;;;16.70;99.90;;;;;;5119184;28;20176;-78
2022/06/05 06:51:15;;;;;;;0.37;0.37;;;16.70;99.90;;;;;;5120081;28;20674;-79
2022/06/05 06:53:42;;;;;;;0.33;0.33;;;16.70;99.90;;;;;;5121904;28;20170;-78
2022/06/05 06:56:17;;;;;;;0.40;0.40;;;16.70;99.90;;;;;;5122231;28;20205;-78
2022/06/05 06:58:44;;;;;;;0.30;0.30;;;16.80;99.90;;;;;;5118719;28;20185;-78
2022/06/05 07:01:11;;;;;;;0.30;0.30;;;16.90;99.90;;;;;;5118805;28;20246;-77
2022/06/05 07:03:37;;;;;;;0.40;0.40;;;16.90;99.90;;;;;;5120659;28;20166;-77
2022/06/05 07:06:05;;;;;;;0.40;0.40;;;17.00;99.90;;;;;;5084040;28;20174;-79
2022/06/05 07:08:30;;;;;;;0.40;0.40;;;17.10;99.90;;;;;;5101814;28;20239;-78
2022/06/05 07:10:56;;;;;;;0.40;0.40;;;17.10;99.90;;;;;;5101643;28;20634;-78
2022/06/05 07:13:22;;;;;;;0.30;0.30;;;17.20;99.90;;;;;;5095753;28;20685;-78
2022/06/05 07:15:47;;;;;;;0.47;0.47;;;17.20;99.90;;;;;;5094172;28;20171;-77
2022/06/05 07:18:13;;;;;;;0.40;0.40;;;17.20;99.90;;;;;;5089165;28;20205;-78
2022/06/05 07:20:42;;;;;;;0.30;0.30;;;17.20;99.90;;;;;;5087835;28;20200;-79
2022/06/05 07:23:09;;;;;;;0.30;0.30;;;17.20;99.90;;;;;;5091918;28;20198;-78
2022/06/05 07:25:36;;;;;;;0.30;0.30;;;17.30;99.90;;;;;;5090035;28;20215;-78
2022/06/05 07:28:02;;;;;;;0.37;0.37;;;17.20;99.90;;;;;;5094201;28;20262;-80
2022/06/05 07:30:28;;;;;;;0.30;0.30;;;17.20;99.90;;;;;;5092768;28;20231;-79
2022/06/05 07:32:54;;;;;;;0.40;0.40;;;17.30;99.90;;;;;;5094067;28;20228;-79
2022/06/05 07:35:21;;;;;;;0.30;0.30;;;17.30;99.90;;;;;;5087999;28;20170;-75
2022/06/05 07:37:47;;;;;;;0.40;0.40;;;17.30;99.90;;;;;;5081226;28;20241;-77
2022/06/05 07:40:14;;;;;;;0.33;0.33;;;17.20;99.90;;;;;;5087272;28;20182;-78
2022/06/05 07:42:42;;;;;;;0.30;0.30;;;17.10;99.90;;;;;;5085823;28;20340;-78
2022/06/05 07:45:10;;;;;;;0.40;0.40;;;17.10;99.90;;;;;;5083835;28;20526;-77
2022/06/05 07:47:36;;;;;;;0.40;0.40;;;17.10;99.90;;;;;;5082706;28;20181;-77
2022/06/05 07:50:03;;;;;;;0.30;0.30;;;17.20;99.90;;;;;;5079445;28;20175;-77
2022/06/05 07:55:13;;;;;;;0.40;0.40;;;17.30;99.90;;;;;;5085030;28;20193;-77
2022/06/05 07:57:39;;;;;;;0.40;0.40;;;17.30;99.90;;;;;;5097379;28;20201;-77
2022/06/05 08:00:07;;;;;;;0.40;0.40;;;17.30;99.90;;;;;;5093411;28;20609;-77
2022/06/05 08:02:34;;;;;;;0.40;0.40;;;17.40;99.90;;;;;;5100163;28;20203;-77
2022/06/05 08:05:00;;;;;;;0.40;0.40;;;17.50;99.90;;;;;;5098583;28;20178;-77
2022/06/05 08:07:29;;;;;;;0.47;0.47;;;17.50;99.90;;;;;;5098749;28;20265;-77
2022/06/05 08:09:55;;;;;;;0.30;0.30;;;17.70;99.90;;;;;;5106050;28;20169;-77
2022/06/05 08:12:24;;;;;;;0.30;0.30;;;17.80;99.90;;;;;;5116699;28;20705;-78
2022/06/05 08:14:51;;;;;;;0.30;0.30;;;18.00;99.90;;;;;;5089110;28;20181;-76
2022/06/05 08:17:26;;;;;;;0.40;0.40;;;18.10;99.90;;;;;;5097639;28;20214;-79
2022/06/05 08:19:52;;;;;;;0.30;0.30;;;18.20;99.90;;;;;;5088568;28;20216;-77
2022/06/05 08:22:20;;;;;;;0.40;0.40;;;18.30;99.90;;;;;;5097171;28;20282;-78
2022/06/05 08:24:46;;;;;;;0.30;0.30;;;18.50;99.90;;;;;;5100342;28;20162;-78
2022/06/05 08:27:15;;;;;;;0.40;0.40;;;18.50;99.90;;;;;;5111685;28;20199;-79
2022/06/05 08:29:42;;;;;;;0.30;0.30;;;18.60;99.90;;;;;;5093862;28;20597;-79
2022/06/05 08:32:08;;;;;;;0.30;0.30;;;18.90;99.90;;;;;;5105048;28;20197;-77
2022/06/05 08:34:35;;;;;;;0.50;0.50;;;19.00;99.90;;;;;;5096810;28;20198;-76
2022/06/05 08:43:08;;;;;;;0.40;0.40;;;19.30;99.90;;;;;;5106019;28;20285;-77
2022/06/05 08:45:41;;;;;;;0.40;0.40;;;19.40;99.90;;;;;;5111534;28;20253;-78
2022/06/05 08:48:13;;;;;;;0.40;0.40;;;19.60;99.90;;;;;;5083518;28;20181;-80
2022/06/05 08:50:50;;;;;;;0.40;0.40;;;20.00;99.90;;;;;;5100169;28;20175;-76
2022/06/05 08:53:34;;;;;;;0.40;0.40;;;20.20;99.90;;;;;;5111794;28;20177;-78
2022/06/05 08:56:03;;;;;;;0.30;0.30;;;20.50;29.50;;;;;;5100574;28;20198;-79
2022/06/05 08:58:30;;;;;;;0.30;0.30;;;21.20;1.00;;;;;;5115512;28;20232;-79
2022/06/05 09:01:03;;;;;;;0.33;0.33;;;21.30;1.00;;;;;;5121903;28;20162;-79
2022/06/05 09:03:36;;;;;;;0.37;0.37;;;21.20;1.00;;;;;;5098833;28;20633;-78
2022/06/05 09:06:17;;;;;;;0.30;0.30;;;21.00;1.00;;;;;;5101987;28;20174;-78
2022/06/05 09:08:45;;;;;;;0.30;0.30;;;21.00;1.00;;;;;;5089062;28;20572;-80
2022/06/05 09:11:21;;;;;;;0.40;0.40;;;21.00;1.00;;;;;;5112885;28;20181;-79
2022/06/05 09:13:56;;;;;;;0.30;0.30;;;21.20;1.00;;;;;;5104286;28;20173;-78
2022/06/05 09:16:35;;;;;;;0.30;0.30;;;21.80;1.00;;;;;;5106206;28;20295;-79
2022/06/05 09:19:03;;;;;;;0.30;0.30;;;22.20;1.00;;;;;;5101537;28;20252;-79
2022/06/05 09:21:43;;;;;;;0.30;0.30;;;22.40;1.00;;;;;;5088704;28;20208;-80
2022/06/05 09:24:16;;;;;;;0.37;0.37;;;22.50;1.00;;;;;;5099824;28;20174;-78
2022/06/05 09:26:58;;;;;;;0.37;0.37;;;22.30;1.00;;;;;;5117471;28;20185;-77
2022/06/05 09:29:43;;;;;;;0.40;0.40;;;22.10;1.00;;;;;;5084451;28;20175;-78
2022/06/05 09:32:39;;;;;;;0.30;0.30;;;22.10;1.00;;;;;;5091490;28;20286;-78
2022/06/05 09:35:19;;;;;;;0.30;0.30;;;22.20;1.00;;;;;;5107575;28;20170;-78
2022/06/05 09:37:56;;;;;;;0.30;0.30;;;22.20;1.00;;;;;;5084027;28;20198;-78
2022/06/05 09:40:30;;;;;;;0.30;0.30;;;21.70;1.00;;;;;;5099888;22;20230;-79
2022/06/05 09:43:01;;;;;;;0.30;0.30;;;21.70;1.00;;;;;;5057240;28;20233;-80
2022/06/05 09:45:45;;;;;;;0.30;0.30;;;21.60;1.00;;;;;;5051262;28;20176;-79
2022/06/05 09:48:40;;;;;;;0.30;0.30;;;21.60;1.00;;;;;;5050472;28;20175;-80
2022/06/05 09:51:11;;;;;;;0.50;0.50;;;21.90;1.00;;;;;;5052019;28;20246;-80
2022/06/05 09:53:42;;;;;;;0.30;0.30;;;22.10;1.00;;;;;;5052605;28;20171;-81
2022/06/05 09:58:24;;;;;;;0.30;0.30;;;22.60;1.00;;;;;;5055693;28;20206;-79
2022/06/05 09:59:33;;;;;;;0.30;0.30;;;22.80;1.00;;;;;;5054864;28;20167;-79
2022/06/05 10:02:01;;;;;;;0.30;0.30;;;22.40;99.90;;;;;;5044316;28;20221;-78
2022/06/05 10:04:32;;;;;;;0.40;0.40;;;22.20;1.00;;;;;;5047256;28;20179;-79
2022/06/05 10:07:05;;;;;;;0.40;0.40;;;22.20;1.00;;;;;;5054871;28;20187;-78
2022/06/05 10:09:32;;;;;;;0.30;0.30;;;22.20;1.00;;;;;;5046990;28;20732;-78
2022/06/05 10:12:03;;;;;;;0.30;0.30;;;22.00;1.00;;;;;;5056702;28;20195;-79
2022/06/05 10:14:47;;;;;;;0.30;0.30;;;21.90;1.00;;;;;;5056788;28;20175;-79
2022/06/05 10:17:30;;;;;;;0.33;0.33;;;21.80;1.00;;;;;;5057005;28;20289;-79
2022/06/05 10:20:14;;;;;;;0.30;0.30;;;21.80;1.00;;;;;;5056247;28;20609;-79
2022/06/05 10:22:39;;;;;;;0.30;0.30;;;21.90;1.00;;;;;;5056816;28;20588;-79
2022/06/05 10:25:23;;;;;;;0.30;0.30;;;21.90;1.00;;;;;;5056709;28;20175;-79
2022/06/05 10:27:55;;;;;;;0.33;0.33;;;22.00;1.00;;;;;;5055605;28;20539;-76
2022/06/05 10:30:29;;;;;;;0.30;0.30;;;21.90;1.00;;;;;;5052090;28;20179;-79
2022/06/05 10:33:06;;;;;;;0.30;0.30;;;21.70;1.00;;;;;;5037357;28;20199;-79
2022/06/05 10:35:49;;;;;;;0.40;0.40;;;21.60;1.00;;;;;;5053385;28;20187;-78
2022/06/05 10:38:41;;;;;;;0.23;0.23;;;21.30;10.50;;;;;;5054846;28;20551;-79
2022/06/05 10:41:13;;;;;;;0.33;0.33;;;21.20;21.70;;;;;;5061550;28;20294;-81
2022/06/05 10:43:39;;;;;;;0.20;0.20;;;21.20;57.50;;;;;;5070560;28;20180;-79
2022/06/05 10:46:17;;;;;;;0.40;0.40;;;21.10;81.10;;;;;;5065535;28;20187;-80
2022/06/05 10:48:49;;;;;;;0.30;0.30;;;21.10;92.70;;;;;;5073653;28;20186;-82
2022/06/05 10:51:50;;;;;;;0.40;0.40;;;20.90;99.90;;;;;;5076724;28;20187;-79
2022/06/05 10:54:44;;;;;;;0.30;0.30;;;20.70;99.90;;;;;;5046032;28;20180;-79
2022/06/05 10:57:29;;;;;;;0.40;0.40;;;20.60;99.90;;;;;;5054487;28;20207;-79
2022/06/05 11:00:03;;;;;;;0.30;0.30;;;20.30;99.90;;;;;;5052754;28;20240;-78
2022/06/05 11:03:01;;;;;;;0.30;0.30;;;20.10;99.90;;;;;;5054810;28;20206;-80
2022/06/05 11:05:50;;;;;;;0.40;0.40;;;20.00;99.90;;;;;;5051545;28;20281;-79
2022/06/05 11:08:57;;;;;;;0.30;0.30;;;19.90;99.90;;;;;;5046215;28;20182;-78
2022/06/05 11:14:54;;;;;;;0.30;0.30;;;19.70;99.90;;;;;;5046060;28;20195;-77
2022/06/05 11:17:25;;;;;;;0.40;0.40;;;19.60;99.90;;;;;;5038319;28;20222;-78
2022/06/05 11:20:13;;;;;;;0.30;0.30;;;19.40;99.90;;;;;;5048191;28;20179;-79
2022/06/05 11:23:02;;;;;;;0.30;0.30;;;19.30;99.90;;;;;;5046854;28;20191;-79
2022/06/05 11:25:42;;;;;;;0.30;0.30;;;19.20;99.90;;;;;;5045693;28;20309;-79
2022/06/05 11:28:39;;;;;;;0.30;0.30;;;19.20;99.90;;;;;;5036961;28;20176;-77
2022/06/05 11:31:05;;;;;;;0.30;0.30;;;19.10;99.90;;;;;;5044311;28;20191;-77
2022/06/05 11:33:34;;;;;;;0.30;0.30;;;19.10;99.90;;;;;;5054162;28;20384;-77
2022/06/05 11:36:18;;;;;;;0.30;0.30;;;19.10;99.90;;;;;;5053451;28;20171;-75
2022/06/05 11:39:19;;;;;;;0.30;0.30;;;19.20;99.90;;;;;;5048715;28;20187;-76
2022/06/05 11:42:05;;;;;;;0.30;0.30;;;19.10;99.90;;;;;;5048410;28;20214;-76
2022/06/05 11:44:45;;;;;;;0.30;0.30;;;19.20;99.90;;;;;;5049110;28;20175;-76
2022/06/05 11:47:38;;;;;;;0.30;0.30;;;19.40;99.90;;;;;;5040057;28;20540;-78
2022/06/05 11:50:31;;;;;;;0.30;0.30;;;19.60;99.90;;;;;;5053535;28;20289;-77
2022/06/05 11:53:34;;;;;;;0.33;0.33;;;19.70;99.90;;;;;;5052920;28;20667;-76
2022/06/05 11:56:23;;;;;;;0.30;0.30;;;19.80;99.90;;;;;;5052872;28;20273;-78
2022/06/05 11:58:58;;;;;;;0.40;0.40;;;20.00;99.90;;;;;;5049854;28;20195;-77
2022/06/05 12:01:29;;;;;;;0.40;0.40;;;20.10;99.90;;;;;;5053588;28;20195;-76
2022/06/05 12:04:10;;;;;;;0.30;0.30;;;20.30;99.90;;;;;;5055680;28;20187;-77
2022/06/05 12:06:44;;;;;;;0.30;0.30;;;20.60;99.90;;;;;;5051605;28;20265;-77
2022/06/05 12:09:18;;;;;;;0.30;0.30;;;20.90;99.90;;;;;;5042834;28;20189;-77
2022/06/05 12:12:00;;;;;;;0.30;0.30;;;21.20;99.90;;;;;;5046774;28;20203;-78
2022/06/05 12:14:30;;;;;;;0.30;0.30;;;21.40;99.90;;;;;;5041371;28;20270;-76
2022/06/05 12:17:04;;;;;;;0.30;0.30;;;21.60;99.90;;;;;;5035271;28;20247;-76
2022/06/05 12:19:47;;;;;;;0.30;0.30;;;21.80;99.90;;;;;;5043917;28;20167;-76
2022/06/05 12:22:16;;;;;;;0.30;0.30;;;21.70;99.90;;;;;;5045663;28;20198;-76
2022/06/05 12:25:05;;;;;;;0.30;0.30;;;21.60;99.90;;;;;;5052301;28;20186;-76
2022/06/05 12:28:08;;;;;;;0.30;0.30;;;21.60;99.90;;;;;;5052157;28;20566;-79
2022/06/05 12:30:43;;;;;;;0.40;0.40;;;21.60;98.60;;;;;;5026714;28;20715;-77
2022/06/05 12:33:19;;;;;;;0.30;0.30;;;21.60;86.90;;;;;;5055195;28;20190;-78
2022/06/05 12:35:49;;;;;;;0.30;0.30;;;21.70;47.80;;;;;;5044613;28;20179;-76
2022/06/05 12:38:33;;;;;;;0.30;0.30;;;21.90;93.10;;;;;;5054104;28;20723;-78
2022/06/05 12:41:22;;;;;;;0.30;0.30;;;22.30;31.70;;;;;;5048805;28;20234;-79
2022/06/05 12:44:25;;;;;;;0.20;0.20;;;22.30;1.00;;;;;;5055707;28;20565;-79
2022/06/05 12:47:02;;;;;;;0.40;0.40;;;22.50;1.00;;;;;;5045604;28;20171;-77
2022/06/05 12:49:59;;;;;;;0.30;0.30;;;22.70;1.00;;;;;;5049880;28;20178;-78
2022/06/05 12:52:35;;;;;;;0.23;0.23;;;23.30;1.00;;;;;;5041864;28;20188;-79
2022/06/05 12:55:23;;;;;;;0.30;0.30;;;23.60;1.00;;;;;;5058442;28;20612;-78
2022/06/05 12:57:59;;;;;;;0.30;0.30;;;24.10;99.90;;;;;;5056141;28;20860;-78
2022/06/05 13:01:02;;;;;;;0.30;0.30;;;24.00;1.00;;;;;;5051403;28;20183;-79
2022/06/05 13:03:38;;;;;;;0.37;0.37;;;23.80;53.90;;;;;;5055200;28;20179;-78
2022/06/05 13:06:07;;;;;;;0.40;0.40;;;23.40;1.00;;;;;;5054405;28;20202;-77
2022/06/05 13:08:55;;;;;;;0.27;0.27;;;22.90;1.00;;;;;;5054488;28;20183;-78
2022/06/05 13:11:43;;;;;;;0.40;0.40;;;22.60;1.00;;;;;;5054978;28;20201;-78
2022/06/05 13:14:30;;;;;;;0.30;0.30;;;22.40;1.00;;;;;;5057576;28;20175;-79
2022/06/05 13:16:55;;;;;;;0.40;0.40;;;22.30;1.00;;;;;;5056332;28;20234;-78
2022/06/05 13:19:25;;;;;;;0.30;0.30;;;22.40;1.00;;;;;;5056697;28;20175;-78
2022/06/05 13:22:12;;;;;;;0.20;0.20;;;22.40;1.00;;;;;;5052195;28;20245;-79
2022/06/05 13:24:50;;;;;;;0.30;0.30;;;22.70;1.00;;;;;;5055736;28;20644;-78
2022/06/05 13:27:21;;;;;;;0.30;0.30;;;22.60;1.00;;;;;;5046023;28;20266;-79
2022/06/05 13:29:53;;;;;;;0.30;0.30;;;22.60;1.00;;;;;;5052958;28;20185;-79
2022/06/05 13:32:53;;;;;;;0.40;0.40;;;22.30;1.00;;;;;;5053289;28;20581;-77
2022/06/05 13:35:21;;;;;;;0.30;0.30;;;22.20;1.00;;;;;;5047672;28;20171;-77
2022/06/05 13:38:26;;;;;;;0.30;0.30;;;22.20;1.00;;;;;;5040278;28;20211;-78